Accueil
METAR-TAF:

METAR-TAF

Aéroports :

Kimmirut, Nunavut, Canada

latitude: 62-51N, longitude: 069-53W, altitude: 53 m

Observation

Le bulletin a été fait il y a 4 heures et 54 minutes, à 20:00 UTC
Vent 7 kt de nord-ouest, variant entre nord-ouest et nord
Température 3°C
Humidité 60%
Pression 1026 hPa
Visibilité: 24.1 km
Nuages fragmentés à une hauteur de 3300 ft

METAR: CYLC 022000Z 32007KT 310V010 15SM BKN033 03/M04 A3031 RMK SC7 P0AFT 12Z LASTSTFD OBS/NXT 031200Z SLP270

Heure: 20:54 (00:54 UTC)


TAF: absent

Observations et prévisions météorologiques de plus de 4000 aéroports (messages METAR et TAF).

Les stations disponibles sont représentées par des disques jaunes et rouges sur la carte.

Passer la souris dessus pour voir le nom de la station.

Cliquer dessus pour voir les observations et prévisions météorologiques.

Pour changer de carte: cliquez sur les boutons verts avec une croix noire pour zoomer, sur le bouton vert avec un tiret pour effectuer un zoom arrière, ou sur les flèches vertes pour les cartes adjacentes.


METAR-TAF: